Amstelveen, Netherlands
Current Conditions -  °F | °C
As of 5:25 AM on Friday 19 Dec 2014 (Local Time) from EHAM Reporting Station
Light Rain Light Rain  
Wind Chill: 54°   Ceiling: 1000
Heat Index: 54°   Visibility: 6mi
Dew Point: 52°   Wind: 32mph
Humidity: 94%   Direction: 240°WSW
Pressure: 29.71"   Gusts: NA
Location:  52.3°N, 4.86°E
Report Text: EHAM 190425Z 24028KT 210V270 9000 -RA FEW008 BKN010 BKN01212/11 Q1006 TEMPO 4000 RA BKN009
Loading
Personal Weather Stations






























Interactive Weather Map New forecast layout! Learn more

10-Day Weather Forecast

Advertisements
Track Severe Weather on mobile